createdAt,value
2023-03-06T00:00:47.433Z,72.29
2023-03-06T00:03:15.499Z,72.62
2023-03-06T00:05:43.651Z,71.86
2023-03-06T00:08:12.139Z,71.51
2023-03-06T00:10:40.779Z,72.33
2023-03-06T00:13:12.436Z,73.03
2023-03-06T00:15:41.160Z,73.41
2023-03-06T00:18:09.431Z,73.53
2023-03-06T00:20:39.926Z,73.30
2023-03-06T00:23:08.941Z,73.96
2023-03-06T00:25:38.906Z,73.93
2023-03-06T00:28:06.960Z,74.20
2023-03-06T00:30:35.331Z,73.44
2023-03-06T00:33:03.251Z,73.59
2023-03-06T00:35:31.593Z,73.29
2023-03-06T00:38:00.002Z,74.03
2023-03-06T00:40:27.858Z,73.65
2023-03-06T00:42:55.813Z,73.88
2023-03-06T00:45:23.759Z,73.23
2023-03-06T00:47:51.792Z,73.80
2023-03-06T00:50:19.613Z,73.94
2023-03-06T00:52:47.747Z,74.10
2023-03-06T00:55:15.683Z,75.14
2023-03-06T00:57:43.696Z,75.20
2023-03-06T01:00:14.503Z,74.67
2023-03-06T01:02:42.614Z,75.22
2023-03-06T01:05:13.196Z,74.97
2023-03-06T01:07:41.488Z,73.56
2023-03-06T01:10:10.466Z,73.68
2023-03-06T01:12:38.349Z,73.96
2023-03-06T01:15:06.946Z,74.30
2023-03-06T01:17:35.889Z,74.30
2023-03-06T01:20:07.041Z,74.40
2023-03-06T01:22:34.924Z,75.13
2023-03-06T01:25:03.119Z,74.36
2023-03-06T01:27:31.077Z,74.36
2023-03-06T01:29:59.068Z,74.22
2023-03-06T01:32:26.898Z,74.71
2023-03-06T01:34:54.871Z,74.36
2023-03-06T01:37:22.731Z,75.51
2023-03-06T01:39:51.094Z,75.06
2023-03-06T01:42:19.125Z,75.32
2023-03-06T01:45:25.795Z,75.60
2023-03-06T01:47:53.636Z,75.88
2023-03-06T01:50:21.659Z,75.67
2023-03-06T01:52:53.966Z,75.39
2023-03-06T01:55:28.120Z,75.27
2023-03-06T01:58:00.896Z,75.68
2023-03-06T02:00:30.000Z,75.92
2023-03-06T02:02:57.756Z,76.35
2023-03-06T02:05:25.589Z,76.22
2023-03-06T02:07:54.629Z,76.41
2023-03-06T02:10:22.900Z,76.06
2023-03-06T02:12:53.490Z,75.85
2023-03-06T02:15:24.148Z,76.58
2023-03-06T02:17:53.080Z,77.21
2023-03-06T02:20:44.264Z,76.43
2023-03-06T02:23:29.688Z,76.08
2023-03-06T02:26:00.701Z,75.83
2023-03-06T02:28:28.961Z,76.22
2023-03-06T02:30:57.439Z,75.59
2023-03-06T02:33:28.849Z,76.19
2023-03-06T02:36:03.424Z,75.75
2023-03-06T02:38:40.932Z,75.84
2023-03-06T02:41:09.592Z,75.90
2023-03-06T02:43:40.198Z,75.31
2023-03-06T02:46:08.556Z,76.64
2023-03-06T02:48:36.606Z,76.44
2023-03-06T02:51:04.601Z,76.08
2023-03-06T02:53:33.385Z,76.09
2023-03-06T02:57:27.677Z,76.66
2023-03-06T02:59:57.267Z,77.70
2023-03-06T03:02:25.841Z,77.35
2023-03-06T03:04:53.894Z,77.20
2023-03-06T03:07:21.981Z,77.19
2023-03-06T03:09:50.401Z,77.60
2023-03-06T03:12:18.422Z,77.09
2023-03-06T03:14:46.466Z,76.77
2023-03-06T03:17:15.198Z,76.56
2023-03-06T03:19:43.133Z,76.80
2023-03-06T03:22:11.026Z,77.15
2023-03-06T03:24:40.253Z,77.06
2023-03-06T03:27:10.559Z,76.79
2023-03-06T03:29:38.661Z,77.18
2023-03-06T03:32:07.280Z,77.49
2023-03-06T03:34:35.738Z,77.55
2023-03-06T03:37:03.822Z,77.21
2023-03-06T03:39:31.984Z,76.85
2023-03-06T03:41:59.992Z,77.35
2023-03-06T03:44:28.795Z,77.44
2023-03-06T03:46:57.304Z,77.31
2023-03-06T03:49:25.982Z,77.36
2023-03-06T03:51:54.445Z,77.63
2023-03-06T03:54:23.865Z,77.57
2023-03-06T03:56:53.854Z,77.51
2023-03-06T03:59:28.475Z,77.97
2023-03-06T04:02:15.604Z,77.95
2023-03-06T04:04:51.875Z,78.36
2023-03-06T04:07:20.440Z,77.93
2023-03-06T04:09:49.360Z,78.20
2023-03-06T04:12:19.233Z,77.61
2023-03-06T04:14:48.201Z,77.11
2023-03-06T04:17:16.550Z,77.33
2023-03-06T04:19:45.272Z,77.29
2023-03-06T04:22:13.434Z,77.61
2023-03-06T04:24:41.847Z,77.72
2023-03-06T04:27:12.308Z,77.40
2023-03-06T04:29:40.729Z,77.82
2023-03-06T04:32:09.590Z,77.86
2023-03-06T04:34:38.510Z,77.60
2023-03-06T04:37:12.022Z,78.41
2023-03-06T04:39:40.143Z,77.66
2023-03-06T04:42:08.112Z,77.78
2023-03-06T04:44:36.168Z,77.94
2023-03-06T04:47:04.350Z,78.46
2023-03-06T04:49:32.584Z,78.02
2023-03-06T04:52:00.422Z,78.11
2023-03-06T04:54:28.275Z,77.96
2023-03-06T04:56:56.425Z,77.91
2023-03-06T04:59:24.356Z,78.48
2023-03-06T05:01:52.523Z,78.21
2023-03-06T05:04:20.450Z,78.00
2023-03-06T05:06:49.781Z,77.88
2023-03-06T05:09:17.834Z,78.16
2023-03-06T05:11:45.777Z,78.40
2023-03-06T05:14:13.815Z,78.33
2023-03-06T05:16:41.724Z,77.75
2023-03-06T05:19:09.713Z,77.93
2023-03-06T05:21:37.634Z,77.92
2023-03-06T05:24:05.912Z,77.76
2023-03-06T05:26:35.057Z,77.86
2023-03-06T05:29:03.324Z,78.51
2023-03-06T05:31:31.540Z,78.37
2023-03-06T05:33:59.612Z,78.17
2023-03-06T05:36:27.938Z,78.02
2023-03-06T05:38:56.225Z,77.62
2023-03-06T05:41:24.238Z,77.17
2023-03-06T05:43:53.530Z,77.49
2023-03-06T05:46:21.309Z,77.97
2023-03-06T05:48:49.242Z,77.63
2023-03-06T05:51:17.230Z,77.70
2023-03-06T05:53:45.095Z,77.80
2023-03-06T05:56:13.576Z,77.37
2023-03-06T05:58:41.778Z,76.48
2023-03-06T06:01:12.665Z,76.40
2023-03-06T06:03:40.943Z,78.45
2023-03-06T06:06:10.776Z,78.39
2023-03-06T06:08:39.207Z,78.20
2023-03-06T06:11:09.988Z,79.09
2023-03-06T06:13:39.144Z,78.86
2023-03-06T06:16:12.939Z,78.27
2023-03-06T06:18:41.512Z,77.77
2023-03-06T06:21:11.643Z,76.21
2023-03-06T06:23:39.589Z,75.55
2023-03-06T06:26:08.912Z,74.09
2023-03-06T06:28:36.764Z,73.65
2023-03-06T06:31:13.367Z,72.69
2023-03-06T06:33:42.438Z,72.63
2023-03-06T06:36:19.827Z,71.89
2023-03-06T06:38:48.811Z,69.64
2023-03-06T06:44:11.550Z,67.99
2023-03-06T06:47:20.735Z,67.28
2023-03-06T06:49:27.721Z,65.40
2023-03-06T06:51:55.717Z,65.63
2023-03-06T06:54:24.050Z,67.03
2023-03-06T06:56:52.040Z,66.88
2023-03-06T06:59:20.435Z,67.03
2023-03-06T07:01:48.527Z,67.72
2023-03-06T07:04:18.307Z,66.78
2023-03-06T07:06:46.764Z,65.16
2023-03-06T07:09:14.760Z,63.68
2023-03-06T07:11:42.719Z,62.88
2023-03-06T07:14:10.748Z,63.42
2023-03-06T07:16:39.024Z,62.50
2023-03-06T07:19:07.896Z,62.49
2023-03-06T07:21:35.804Z,62.19
2023-03-06T07:24:04.917Z,61.55
2023-03-06T07:26:34.741Z,61.08
2023-03-06T07:29:03.989Z,60.51
2023-03-06T07:31:32.629Z,53.07
2023-03-06T07:34:02.528Z,44.01
2023-03-06T07:36:33.699Z,37.96
2023-03-06T07:39:01.965Z,31.61
2023-03-06T07:41:29.902Z,28.89
2023-03-06T07:43:57.985Z,26.86
2023-03-06T07:46:26.010Z,23.83
2023-03-06T07:48:54.248Z,22.70
2023-03-06T07:51:23.254Z,22.40
2023-03-06T07:53:51.339Z,19.91
2023-03-06T07:56:19.420Z,19.96
2023-03-06T07:58:48.308Z,18.67
2023-03-06T08:01:20.191Z,17.81
2023-03-06T08:03:52.763Z,17.32
2023-03-06T08:06:22.134Z,18.12
2023-03-06T08:08:51.833Z,18.83
2023-03-06T08:11:22.621Z,19.92
2023-03-06T08:13:53.020Z,19.85
2023-03-06T08:16:22.466Z,20.56
2023-03-06T08:18:51.664Z,19.22
2023-03-06T08:21:22.542Z,19.22
2023-03-06T08:23:51.430Z,19.96
2023-03-06T08:26:24.214Z,19.22
2023-03-06T08:28:54.121Z,19.21
2023-03-06T08:31:27.973Z,19.09
2023-03-06T08:33:57.734Z,19.49
2023-03-06T08:36:25.921Z,18.51
2023-03-06T08:38:54.883Z,18.36
2023-03-06T08:41:23.002Z,17.40
2023-03-06T08:43:51.512Z,16.56
2023-03-06T08:46:22.217Z,15.95
2023-03-06T08:48:50.097Z,15.97
2023-03-06T08:51:19.750Z,17.35
2023-03-06T08:53:48.260Z,18.19
2023-03-06T08:56:23.309Z,17.81
2023-03-06T08:58:52.669Z,17.37
2023-03-06T09:01:29.587Z,17.06
2023-03-06T09:04:07.717Z,19.23
2023-03-06T09:06:39.245Z,19.48
2023-03-06T09:09:07.884Z,20.27
2023-03-06T09:11:36.590Z,19.61
2023-03-06T09:14:05.744Z,19.38
2023-03-06T09:16:33.945Z,18.26
2023-03-06T09:19:02.077Z,18.48
2023-03-06T09:21:30.062Z,19.81
2023-03-06T09:23:59.367Z,21.12
2023-03-06T09:26:39.744Z,20.08
2023-03-06T09:29:16.569Z,21.16
2023-03-06T09:31:45.529Z,21.71
2023-03-06T09:34:13.851Z,24.35
2023-03-06T09:36:55.518Z,24.28
2023-03-06T09:39:26.631Z,23.36
2023-03-06T09:41:57.496Z,22.23
2023-03-06T09:44:31.570Z,21.86
2023-03-06T09:47:36.548Z,21.91
2023-03-06T09:50:32.774Z,21.76
2023-03-06T09:53:28.987Z,21.69
2023-03-06T09:56:24.806Z,23.47
2023-03-06T09:58:59.699Z,22.66
2023-03-06T10:01:35.217Z,22.22
2023-03-06T10:04:16.358Z,21.82
2023-03-06T10:06:50.532Z,20.36
2023-03-06T10:09:43.535Z,19.04
2023-03-06T10:12:28.811Z,18.79
2023-03-06T10:15:02.093Z,19.12
2023-03-06T10:17:36.028Z,20.09
2023-03-06T10:20:16.446Z,19.21
2023-03-06T10:23:22.309Z,20.57
2023-03-06T10:26:20.227Z,20.77
2023-03-06T10:29:06.601Z,22.07
2023-03-06T10:31:35.208Z,22.11
2023-03-06T10:34:23.068Z,23.63
2023-03-06T10:36:51.836Z,24.40
2023-03-06T10:39:22.693Z,26.16
2023-03-06T10:41:50.644Z,25.54
2023-03-06T10:44:20.652Z,25.75
2023-03-06T10:46:51.886Z,25.31
2023-03-06T10:49:33.485Z,23.97
2023-03-06T10:52:03.198Z,22.82
2023-03-06T10:54:40.157Z,22.95
2023-03-06T10:57:31.287Z,22.40
2023-03-06T11:00:08.531Z,21.78
2023-03-06T11:02:41.286Z,22.11
2023-03-06T11:05:20.665Z,21.58
2023-03-06T11:08:00.140Z,21.78
2023-03-06T11:10:30.035Z,21.69
2023-03-06T11:13:03.135Z,21.75
2023-03-06T11:15:32.329Z,21.09
2023-03-06T11:18:01.546Z,21.44
2023-03-06T11:20:48.658Z,21.61
2023-03-06T11:23:45.955Z,22.03
2023-03-06T11:26:16.736Z,21.18
2023-03-06T11:28:57.840Z,22.16
2023-03-06T11:31:35.949Z,23.31
2023-03-06T11:34:14.398Z,24.02
2023-03-06T11:37:06.603Z,26.87
2023-03-06T11:39:45.170Z,29.33
2023-03-06T11:42:18.843Z,29.96
2023-03-06T11:45:17.611Z,30.44
2023-03-06T11:47:59.351Z,30.47
2023-03-06T11:50:39.762Z,29.38
2023-03-06T11:53:11.936Z,28.74
2023-03-06T11:56:03.717Z,30.91
2023-03-06T11:58:56.736Z,30.66
2023-03-06T12:01:36.473Z,29.50
2023-03-06T12:04:17.957Z,29.51
2023-03-06T12:07:06.613Z,29.99
2023-03-06T12:10:02.768Z,30.86
2023-03-06T12:13:08.329Z,30.35
2023-03-06T12:15:36.273Z,28.91
2023-03-06T12:18:34.159Z,28.96
2023-03-06T12:21:12.968Z,27.59
2023-03-06T12:23:56.624Z,28.26
2023-03-06T12:27:02.372Z,28.83
2023-03-06T12:29:41.739Z,28.54
2023-03-06T12:32:32.631Z,29.10
2023-03-06T12:35:35.549Z,27.61
2023-03-06T12:38:31.273Z,29.85
2023-03-06T12:41:35.715Z,30.76
2023-03-06T12:44:22.248Z,31.01
2023-03-06T12:46:58.071Z,30.33
2023-03-06T12:49:33.300Z,30.65
2023-03-06T12:52:02.659Z,30.29
2023-03-06T12:54:34.018Z,30.95
2023-03-06T12:57:03.009Z,30.97
2023-03-06T12:59:44.765Z,31.77
2023-03-06T13:02:39.920Z,31.69
2023-03-06T13:05:31.762Z,32.04
2023-03-06T13:08:48.784Z,32.00
2023-03-06T13:11:38.056Z,31.08
2023-03-06T13:14:25.665Z,32.20
2023-03-06T13:16:54.471Z,32.60
2023-03-06T13:19:25.559Z,33.01
2023-03-06T13:21:56.643Z,33.62
2023-03-06T13:24:34.868Z,33.78
2023-03-06T13:27:06.317Z,33.58
2023-03-06T13:29:37.196Z,33.60
2023-03-06T13:32:13.948Z,32.66
2023-03-06T13:34:48.753Z,32.32
2023-03-06T13:37:25.318Z,33.38
2023-03-06T13:39:57.017Z,33.96
2023-03-06T13:42:47.946Z,35.31
2023-03-06T13:45:38.883Z,35.31
2023-03-06T13:48:30.264Z,35.55
2023-03-06T13:50:56.624Z,35.74
2023-03-06T13:53:53.194Z,36.63
2023-03-06T13:56:21.190Z,36.87
2023-03-06T13:59:04.320Z,36.22
2023-03-06T14:02:00.621Z,37.32
2023-03-06T14:04:54.978Z,36.80
2023-03-06T14:07:29.162Z,36.48
2023-03-06T14:10:24.911Z,36.38
2023-03-06T14:13:15.229Z,35.71
2023-03-06T14:15:47.738Z,37.08
2023-03-06T14:18:29.964Z,37.35
2023-03-06T14:21:03.802Z,35.13
2023-03-06T14:23:42.581Z,35.85
2023-03-06T14:26:23.593Z,37.82
2023-03-06T14:28:59.453Z,37.24
2023-03-06T14:31:37.799Z,37.99
2023-03-06T14:34:08.935Z,37.95
2023-03-06T14:36:43.755Z,38.35
2023-03-06T14:39:33.566Z,39.21
2023-03-06T14:42:16.541Z,38.15
2023-03-06T14:44:46.277Z,40.35
2023-03-06T14:47:27.653Z,39.33
2023-03-06T14:50:21.907Z,39.68
2023-03-06T14:52:52.695Z,38.85
2023-03-06T14:55:24.015Z,38.61
2023-03-06T14:58:02.750Z,39.44
2023-03-06T15:00:36.765Z,38.43
2023-03-06T15:03:28.467Z,38.97
2023-03-06T15:05:57.449Z,40.34
2023-03-06T15:08:31.807Z,40.09
2023-03-06T15:11:03.952Z,40.49
2023-03-06T15:13:34.356Z,39.89
2023-03-06T15:16:04.738Z,39.61
2023-03-06T15:18:35.628Z,39.56
2023-03-06T15:21:11.393Z,40.72
2023-03-06T15:23:44.667Z,40.19
2023-03-06T15:26:37.182Z,40.53
2023-03-06T15:29:11.203Z,40.52
2023-03-06T15:31:42.666Z,40.84
2023-03-06T15:34:11.026Z,40.79
2023-03-06T15:36:40.372Z,39.66
2023-03-06T15:39:27.755Z,41.26
2023-03-06T15:42:01.169Z,40.74
2023-03-06T15:44:33.111Z,41.05
2023-03-06T15:47:09.448Z,40.58
2023-03-06T15:49:40.526Z,41.98
2023-03-06T15:52:09.450Z,42.73
2023-03-06T15:54:37.942Z,43.00
2023-03-06T15:57:14.508Z,43.23
2023-03-06T15:59:45.292Z,44.24
2023-03-06T16:02:20.157Z,43.18
2023-03-06T16:04:49.559Z,43.45
2023-03-06T16:07:18.824Z,45.58
2023-03-06T16:09:47.817Z,45.59
2023-03-06T16:12:17.838Z,46.03
2023-03-06T16:14:50.202Z,45.18
2023-03-06T16:17:18.767Z,46.62
2023-03-06T16:19:47.907Z,46.95
2023-03-06T16:22:16.026Z,46.66
2023-03-06T16:24:44.027Z,45.17
2023-03-06T16:27:19.562Z,46.37
2023-03-06T16:29:48.229Z,45.73
2023-03-06T16:32:16.984Z,47.36
2023-03-06T16:34:48.010Z,47.11
2023-03-06T16:37:16.832Z,47.12
2023-03-06T16:39:45.308Z,47.17
2023-03-06T16:42:13.675Z,47.89
2023-03-06T16:44:42.073Z,48.01
2023-03-06T16:47:13.202Z,48.50
2023-03-06T16:49:41.712Z,49.00
2023-03-06T16:52:11.684Z,49.16
2023-03-06T16:54:40.166Z,49.33
2023-03-06T16:57:10.484Z,50.34
2023-03-06T16:59:38.847Z,51.08
2023-03-06T17:02:07.441Z,51.20
2023-03-06T17:04:35.584Z,51.77
2023-03-06T17:07:04.031Z,50.74
2023-03-06T17:09:32.691Z,51.37
2023-03-06T17:12:01.642Z,52.29
2023-03-06T17:14:30.338Z,52.50
2023-03-06T17:16:59.146Z,51.87
2023-03-06T17:19:27.632Z,51.82
2023-03-06T17:21:56.106Z,52.64
2023-03-06T17:24:24.771Z,51.75
2023-03-06T17:26:53.266Z,52.21
2023-03-06T17:29:23.064Z,51.89
2023-03-06T17:31:51.682Z,52.80
2023-03-06T17:34:20.174Z,53.06
2023-03-06T17:36:48.265Z,51.40
2023-03-06T17:39:16.743Z,51.86
2023-03-06T17:41:46.456Z,52.01
2023-03-06T17:44:20.150Z,52.06
2023-03-06T17:46:50.304Z,53.67
2023-03-06T17:49:21.933Z,53.44
2023-03-06T17:51:50.424Z,53.79
2023-03-06T17:54:19.248Z,53.76
2023-03-06T17:56:47.705Z,51.96
2023-03-06T17:59:16.575Z,53.59
2023-03-06T18:01:45.423Z,53.62
2023-03-06T18:04:13.611Z,53.60
2023-03-06T18:06:42.911Z,54.58
2023-03-06T18:09:11.304Z,54.52
2023-03-06T18:11:39.703Z,54.84
2023-03-06T18:14:08.060Z,54.70
2023-03-06T18:16:36.879Z,54.39
2023-03-06T18:19:05.322Z,55.51
2023-03-06T18:21:33.813Z,56.39
2023-03-06T18:24:02.198Z,57.13
2023-03-06T18:26:30.902Z,56.95
2023-03-06T18:29:04.094Z,58.28
2023-03-06T18:31:35.403Z,58.39
2023-03-06T18:34:10.192Z,58.83
2023-03-06T18:36:39.995Z,58.09
2023-03-06T18:39:11.716Z,57.70
2023-03-06T18:41:40.707Z,58.56
2023-03-06T18:44:09.441Z,59.41
2023-03-06T18:46:38.649Z,58.82
2023-03-06T18:49:07.650Z,60.03
2023-03-06T18:51:36.333Z,59.93
2023-03-06T18:54:06.200Z,60.71
2023-03-06T18:56:35.269Z,61.17
2023-03-06T18:59:05.775Z,61.32
2023-03-06T19:01:35.334Z,62.83
2023-03-06T19:04:05.156Z,62.48
2023-03-06T19:06:34.038Z,62.24
2023-03-06T19:09:02.630Z,62.42
2023-03-06T19:11:32.562Z,62.53
2023-03-06T19:14:01.180Z,62.93
2023-03-06T19:16:31.558Z,62.95
2023-03-06T19:19:00.172Z,62.28
2023-03-06T19:21:29.207Z,63.48
2023-03-06T19:23:57.850Z,64.61
2023-03-06T19:26:28.333Z,63.64
2023-03-06T19:28:56.916Z,64.43
2023-03-06T19:31:27.744Z,63.96
2023-03-06T19:33:57.407Z,64.22
2023-03-06T19:36:33.614Z,64.43
2023-03-06T19:39:06.638Z,64.92
2023-03-06T19:41:35.666Z,64.43
2023-03-06T19:44:06.210Z,63.69
2023-03-06T19:46:36.546Z,63.40
2023-03-06T19:49:11.985Z,62.78
2023-03-06T19:51:40.548Z,63.59
2023-03-06T19:54:12.075Z,63.31
2023-03-06T19:56:41.186Z,63.63
2023-03-06T19:59:09.523Z,64.00
2023-03-06T20:01:39.150Z,64.23
2023-03-06T20:04:08.175Z,64.53
2023-03-06T20:06:39.609Z,64.21
2023-03-06T20:09:09.846Z,62.72
2023-03-06T20:11:38.828Z,63.15
2023-03-06T20:14:09.247Z,62.52
2023-03-06T20:16:38.432Z,61.81
2023-03-06T20:19:08.995Z,62.57
2023-03-06T20:21:38.573Z,63.91
2023-03-06T20:24:08.919Z,62.04
2023-03-06T20:26:38.942Z,61.32
2023-03-06T20:29:07.887Z,62.89
2023-03-06T20:31:36.653Z,62.75
2023-03-06T20:34:05.450Z,62.34
2023-03-06T20:36:40.709Z,63.16
2023-03-06T20:39:09.752Z,63.09
2023-03-06T20:41:38.131Z,62.94
2023-03-06T20:44:08.244Z,63.35
2023-03-06T20:46:36.989Z,62.45
2023-03-06T20:49:05.385Z,63.33
2023-03-06T20:51:39.012Z,62.47
2023-03-06T20:54:10.789Z,63.57
2023-03-06T20:56:41.464Z,64.62
2023-03-06T20:59:12.299Z,65.10
2023-03-06T21:01:43.193Z,64.76
2023-03-06T21:04:16.366Z,64.73
2023-03-06T21:06:47.261Z,65.77
2023-03-06T21:09:17.119Z,65.20
2023-03-06T21:11:46.569Z,65.50
2023-03-06T21:14:18.660Z,66.78
2023-03-06T21:16:46.764Z,66.85
2023-03-06T21:19:14.986Z,65.63
2023-03-06T21:21:42.868Z,66.02
2023-03-06T21:24:11.117Z,66.14
2023-03-06T21:26:39.330Z,64.83
2023-03-06T21:29:07.506Z,65.17
2023-03-06T21:31:36.754Z,64.91
2023-03-06T21:34:05.631Z,64.30
2023-03-06T21:36:33.886Z,64.41
2023-03-06T21:39:02.700Z,64.89
2023-03-06T21:41:32.395Z,64.37
2023-03-06T21:44:03.659Z,65.05
2023-03-06T21:46:32.752Z,65.84
2023-03-06T21:49:04.749Z,65.22
2023-03-06T21:51:33.661Z,65.93
2023-03-06T21:54:02.498Z,66.25
2023-03-06T21:56:31.176Z,65.94
2023-03-06T21:58:59.511Z,66.98
2023-03-06T22:01:29.466Z,66.91
2023-03-06T22:03:58.918Z,66.17
2023-03-06T22:06:28.686Z,66.58
2023-03-06T22:08:58.612Z,66.92
2023-03-06T22:11:29.985Z,67.32
2023-03-06T22:13:58.377Z,67.14
2023-03-06T22:16:26.642Z,67.77
2023-03-06T22:18:54.760Z,68.27
2023-03-06T22:21:23.703Z,68.29
2023-03-06T22:23:54.123Z,68.15
2023-03-06T22:26:22.390Z,68.32
2023-03-06T22:28:50.565Z,67.64
2023-03-06T22:31:24.563Z,66.95
2023-03-06T22:33:54.372Z,67.73
2023-03-06T22:36:23.618Z,68.02
2023-03-06T22:38:56.136Z,67.78
2023-03-06T22:41:26.966Z,68.56
2023-03-06T22:43:59.893Z,68.85
2023-03-06T22:46:28.988Z,68.97
2023-03-06T22:48:58.296Z,68.32
2023-03-06T22:51:27.205Z,68.67
2023-03-06T22:53:55.706Z,68.15
2023-03-06T22:56:24.428Z,69.07
2023-03-06T22:58:52.419Z,68.13
2023-03-06T23:01:49.561Z,68.35
2023-03-06T23:04:17.609Z,67.97
2023-03-06T23:06:47.223Z,68.05
2023-03-06T23:09:21.649Z,68.32
2023-03-06T23:16:33.610Z,67.82
2023-03-06T23:19:19.982Z,67.37
2023-03-06T23:22:08.988Z,67.79
2023-03-06T23:24:55.212Z,67.23
2023-03-06T23:27:23.103Z,66.43
2023-03-06T23:29:51.188Z,66.93
2023-03-06T23:32:19.269Z,66.94
2023-03-06T23:34:50.015Z,66.67
2023-03-06T23:37:17.975Z,66.18
2023-03-06T23:39:47.125Z,65.74
2023-03-06T23:42:15.088Z,66.73
2023-03-06T23:44:43.112Z,67.09
2023-03-06T23:47:11.136Z,66.80
2023-03-06T23:49:40.205Z,67.00
2023-03-06T23:52:08.514Z,66.57
2023-03-06T23:54:36.440Z,67.33
2023-03-06T23:57:04.397Z,67.24
2023-03-06T23:59:32.421Z,68.88
